sensor_id;sensor_type;location;lat;lon;timestamp;pressure;altitude;pressure_sealevel;temperature;humidity
47967;BME280;33733;52.456;13.620;2023-11-18T00:00:13;101863.16;;;7.44;69.89
47967;BME280;33733;52.456;13.620;2023-11-18T00:02:43;101870.38;;;7.39;70.42
47967;BME280;33733;52.456;13.620;2023-11-18T00:05:12;101873.09;;;7.60;70.40
47967;BME280;33733;52.456;13.620;2023-11-18T00:07:39;101860.50;;;7.46;70.44
47967;BME280;33733;52.456;13.620;2023-11-18T00:10:07;101870.25;;;7.42;70.45
47967;BME280;33733;52.456;13.620;2023-11-18T00:12:36;101877.28;;;7.19;70.78
47967;BME280;33733;52.456;13.620;2023-11-18T00:15:04;101869.81;;;7.31;70.30
47967;BME280;33733;52.456;13.620;2023-11-18T00:17:32;101876.66;;;7.35;70.14
47967;BME280;33733;52.456;13.620;2023-11-18T00:19:59;101884.66;;;7.32;70.89
47967;BME280;33733;52.456;13.620;2023-11-18T00:22:27;101880.44;;;6.80;72.04
47967;BME280;33733;52.456;13.620;2023-11-18T00:24:55;101894.31;;;6.84;71.79
47967;BME280;33733;52.456;13.620;2023-11-18T00:27:22;101896.09;;;7.06;71.62
47967;BME280;33733;52.456;13.620;2023-11-18T00:29:49;101897.81;;;6.83;72.59
47967;BME280;33733;52.456;13.620;2023-11-18T00:32:17;101905.75;;;6.56;72.87
47967;BME280;33733;52.456;13.620;2023-11-18T00:34:44;101904.63;;;6.88;72.34
47967;BME280;33733;52.456;13.620;2023-11-18T00:37:12;101909.72;;;6.68;72.69
47967;BME280;33733;52.456;13.620;2023-11-18T00:39:39;101903.66;;;6.91;72.02
47967;BME280;33733;52.456;13.620;2023-11-18T00:42:06;101901.75;;;6.96;72.17
47967;BME280;33733;52.456;13.620;2023-11-18T00:44:34;101915.59;;;6.99;71.31
47967;BME280;33733;52.456;13.620;2023-11-18T00:47:01;101913.16;;;7.18;71.18
47967;BME280;33733;52.456;13.620;2023-11-18T00:49:29;101917.13;;;7.05;70.94
47967;BME280;33733;52.456;13.620;2023-11-18T00:51:57;101919.75;;;7.05;71.31
47967;BME280;33733;52.456;13.620;2023-11-18T00:54:25;101920.03;;;6.97;71.48
47967;BME280;33733;52.456;13.620;2023-11-18T00:56:53;101928.69;;;6.99;71.37
47967;BME280;33733;52.456;13.620;2023-11-18T00:59:21;101922.94;;;7.13;71.41
47967;BME280;33733;52.456;13.620;2023-11-18T01:01:48;101930.44;;;7.24;70.84
47967;BME280;33733;52.456;13.620;2023-11-18T01:04:16;101942.47;;;7.29;70.52
47967;BME280;33733;52.456;13.620;2023-11-18T01:06:45;101939.94;;;7.03;71.57
47967;BME280;33733;52.456;13.620;2023-11-18T01:09:12;101951.50;;;6.97;71.77
47967;BME280;33733;52.456;13.620;2023-11-18T01:11:39;101950.19;;;7.09;71.17
47967;BME280;33733;52.456;13.620;2023-11-18T01:14:26;101955.03;;;6.96;70.83
47967;BME280;33733;52.456;13.620;2023-11-18T01:16:54;101954.53;;;6.85;71.80
47967;BME280;33733;52.456;13.620;2023-11-18T01:19:21;101959.59;;;6.65;72.92
47967;BME280;33733;52.456;13.620;2023-11-18T01:21:49;101952.66;;;6.64;72.53
47967;BME280;33733;52.456;13.620;2023-11-18T01:24:17;101955.41;;;6.86;72.05
47967;BME280;33733;52.456;13.620;2023-11-18T01:26:45;101963.41;;;6.81;72.35
47967;BME280;33733;52.456;13.620;2023-11-18T01:29:13;101962.81;;;6.73;72.42
47967;BME280;33733;52.456;13.620;2023-11-18T01:31:40;101964.81;;;6.67;72.44
47967;BME280;33733;52.456;13.620;2023-11-18T01:34:19;101969.41;;;6.60;72.67
47967;BME280;33733;52.456;13.620;2023-11-18T01:36:49;101963.69;;;6.98;72.20
47967;BME280;33733;52.456;13.620;2023-11-18T01:39:17;101969.69;;;7.02;71.70
47967;BME280;33733;52.456;13.620;2023-11-18T01:41:45;101956.72;;;7.22;70.80
47967;BME280;33733;52.456;13.620;2023-11-18T01:44:13;101974.16;;;7.00;71.25
47967;BME280;33733;52.456;13.620;2023-11-18T01:46:42;101979.66;;;6.92;71.38
47967;BME280;33733;52.456;13.620;2023-11-18T01:49:13;101978.47;;;6.76;72.09
47967;BME280;33733;52.456;13.620;2023-11-18T01:51:43;101978.19;;;6.57;72.48
47967;BME280;33733;52.456;13.620;2023-11-18T01:54:12;101973.38;;;6.72;72.26
47967;BME280;33733;52.456;13.620;2023-11-18T01:56:49;101976.16;;;6.67;72.15
47967;BME280;33733;52.456;13.620;2023-11-18T01:59:17;101979.94;;;6.58;72.25
47967;BME280;33733;52.456;13.620;2023-11-18T02:01:52;101977.88;;;6.68;72.17
47967;BME280;33733;52.456;13.620;2023-11-18T02:04:21;101978.22;;;6.84;71.72
47967;BME280;33733;52.456;13.620;2023-11-18T02:06:49;101983.28;;;6.88;72.10
47967;BME280;33733;52.456;13.620;2023-11-18T02:09:19;101982.66;;;7.06;70.76
47967;BME280;33733;52.456;13.620;2023-11-18T02:12:04;101994.56;;;6.90;71.75
47967;BME280;33733;52.456;13.620;2023-11-18T02:14:39;101989.31;;;6.90;71.17
47967;BME280;33733;52.456;13.620;2023-11-18T02:17:09;101997.13;;;6.67;72.02
47967;BME280;33733;52.456;13.620;2023-11-18T02:19:39;101994.00;;;6.56;72.84
47967;BME280;33733;52.456;13.620;2023-11-18T02:22:07;101995.28;;;6.69;71.86
47967;BME280;33733;52.456;13.620;2023-11-18T02:24:37;102001.50;;;6.40;73.02
47967;BME280;33733;52.456;13.620;2023-11-18T02:27:05;102009.16;;;6.46;73.66
47967;BME280;33733;52.456;13.620;2023-11-18T02:29:37;102003.97;;;6.71;72.75
47967;BME280;33733;52.456;13.620;2023-11-18T02:35:02;102006.25;;;6.55;72.67
47967;BME280;33733;52.456;13.620;2023-11-18T02:37:33;102003.50;;;6.58;72.76
47967;BME280;33733;52.456;13.620;2023-11-18T02:40:03;102011.41;;;6.57;72.20
47967;BME280;33733;52.456;13.620;2023-11-18T02:42:43;102015.44;;;6.93;71.16
47967;BME280;33733;52.456;13.620;2023-11-18T02:45:13;102010.19;;;6.69;71.74
47967;BME280;33733;52.456;13.620;2023-11-18T02:47:45;102001.47;;;6.68;72.06
47967;BME280;33733;52.456;13.620;2023-11-18T02:50:13;102003.75;;;7.03;71.10
47967;BME280;33733;52.456;13.620;2023-11-18T02:52:41;102007.06;;;7.08;70.65
47967;BME280;33733;52.456;13.620;2023-11-18T02:55:08;102006.78;;;6.65;71.69
47967;BME280;33733;52.456;13.620;2023-11-18T02:57:36;102005.63;;;6.74;71.29
47967;BME280;33733;52.456;13.620;2023-11-18T03:00:05;102008.06;;;6.80;70.92
47967;BME280;33733;52.456;13.620;2023-11-18T03:02:32;102012.25;;;6.59;72.56
47967;BME280;33733;52.456;13.620;2023-11-18T03:04:59;102014.75;;;6.36;72.61
47967;BME280;33733;52.456;13.620;2023-11-18T03:07:27;102015.16;;;6.50;72.53
47967;BME280;33733;52.456;13.620;2023-11-18T03:09:54;102001.34;;;6.71;71.66
47967;BME280;33733;52.456;13.620;2023-11-18T03:12:23;102010.81;;;6.75;72.26
47967;BME280;33733;52.456;13.620;2023-11-18T03:14:55;102010.97;;;6.71;71.63
47967;BME280;33733;52.456;13.620;2023-11-18T03:17:23;102014.50;;;6.70;71.47
47967;BME280;33733;52.456;13.620;2023-11-18T03:19:51;102011.56;;;6.79;72.05
47967;BME280;33733;52.456;13.620;2023-11-18T03:22:18;102008.50;;;6.66;72.10
47967;BME280;33733;52.456;13.620;2023-11-18T03:24:46;102001.81;;;6.84;71.12
47967;BME280;33733;52.456;13.620;2023-11-18T03:27:13;102006.97;;;7.12;70.90
47967;BME280;33733;52.456;13.620;2023-11-18T03:29:40;102013.06;;;7.12;69.97
47967;BME280;33733;52.456;13.620;2023-11-18T03:32:07;102013.06;;;7.12;70.51
47967;BME280;33733;52.456;13.620;2023-11-18T03:34:35;102019.69;;;7.22;69.75
47967;BME280;33733;52.456;13.620;2023-11-18T03:37:02;102014.75;;;7.38;69.08
47967;BME280;33733;52.456;13.620;2023-11-18T03:39:29;102024.50;;;7.34;69.70
47967;BME280;33733;52.456;13.620;2023-11-18T03:41:57;102021.72;;;7.39;69.16
47967;BME280;33733;52.456;13.620;2023-11-18T03:44:24;102030.28;;;6.94;70.45
47967;BME280;33733;52.456;13.620;2023-11-18T03:46:52;102031.84;;;7.00;70.82
47967;BME280;33733;52.456;13.620;2023-11-18T03:49:19;102026.16;;;6.87;70.70
47967;BME280;33733;52.456;13.620;2023-11-18T03:51:47;102036.69;;;7.12;70.43
47967;BME280;33733;52.456;13.620;2023-11-18T03:54:15;102029.75;;;7.34;69.79
47967;BME280;33733;52.456;13.620;2023-11-18T03:56:42;102035.97;;;7.07;70.04
47967;BME280;33733;52.456;13.620;2023-11-18T03:59:09;102038.59;;;7.07;71.00
47967;BME280;33733;52.456;13.620;2023-11-18T04:01:37;102031.16;;;6.69;71.47
47967;BME280;33733;52.456;13.620;2023-11-18T04:04:04;102022.09;;;7.03;70.93
47967;BME280;33733;52.456;13.620;2023-11-18T04:06:31;102031.00;;;6.99;70.77
47967;BME280;33733;52.456;13.620;2023-11-18T04:08:59;102024.31;;;6.89;71.37
47967;BME280;33733;52.456;13.620;2023-11-18T04:11:26;102029.72;;;7.11;70.54
47967;BME280;33733;52.456;13.620;2023-11-18T04:13:54;102022.16;;;7.27;69.62
47967;BME280;33733;52.456;13.620;2023-11-18T04:16:21;102026.78;;;7.20;69.75
47967;BME280;33733;52.456;13.620;2023-11-18T04:18:48;102037.75;;;7.31;69.53
47967;BME280;33733;52.456;13.620;2023-11-18T04:21:15;102036.59;;;7.14;70.07
47967;BME280;33733;52.456;13.620;2023-11-18T04:23:43;102045.66;;;6.52;71.42
47967;BME280;33733;52.456;13.620;2023-11-18T04:26:13;102050.50;;;6.65;71.78
47967;BME280;33733;52.456;13.620;2023-11-18T04:28:41;102045.44;;;6.58;72.19
47967;BME280;33733;52.456;13.620;2023-11-18T04:31:08;102048.97;;;7.10;71.12
47967;BME280;33733;52.456;13.620;2023-11-18T04:33:35;102044.88;;;7.28;69.22
47967;BME280;33733;52.456;13.620;2023-11-18T04:36:03;102050.91;;;7.30;69.50
47967;BME280;33733;52.456;13.620;2023-11-18T04:38:33;102054.06;;;7.39;69.07
47967;BME280;33733;52.456;13.620;2023-11-18T04:41:00;102057.44;;;7.43;68.91
47967;BME280;33733;52.456;13.620;2023-11-18T04:43:30;102068.78;;;7.19;69.25
47967;BME280;33733;52.456;13.620;2023-11-18T04:46:07;102067.75;;;7.24;69.41
47967;BME280;33733;52.456;13.620;2023-11-18T04:48:34;102063.69;;;7.14;69.32
47967;BME280;33733;52.456;13.620;2023-11-18T04:51:07;102065.53;;;7.37;69.26
47967;BME280;33733;52.456;13.620;2023-11-18T04:53:35;102061.34;;;7.31;68.37
47967;BME280;33733;52.456;13.620;2023-11-18T04:56:02;102066.72;;;7.28;69.25
47967;BME280;33733;52.456;13.620;2023-11-18T04:58:30;102064.50;;;7.41;69.42
47967;BME280;33733;52.456;13.620;2023-11-18T05:00:57;102061.38;;;7.05;69.86
47967;BME280;33733;52.456;13.620;2023-11-18T05:03:24;102069.84;;;7.13;69.62
47967;BME280;33733;52.456;13.620;2023-11-18T05:05:52;102074.81;;;7.21;69.82
47967;BME280;33733;52.456;13.620;2023-11-18T05:08:24;102071.84;;;7.31;69.69
47967;BME280;33733;52.456;13.620;2023-11-18T05:10:52;102073.25;;;7.41;69.10
47967;BME280;33733;52.456;13.620;2023-11-18T05:13:21;102071.44;;;7.43;68.92
47967;BME280;33733;52.456;13.620;2023-11-18T05:15:49;102077.09;;;7.56;67.61
47967;BME280;33733;52.456;13.620;2023-11-18T05:18:17;102081.81;;;7.46;68.38
47967;BME280;33733;52.456;13.620;2023-11-18T05:20:44;102074.19;;;7.14;68.94
47967;BME280;33733;52.456;13.620;2023-11-18T05:23:12;102076.03;;;7.12;69.12
47967;BME280;33733;52.456;13.620;2023-11-18T05:25:40;102071.94;;;7.03;69.36
47967;BME280;33733;52.456;13.620;2023-11-18T05:28:07;102067.09;;;6.91;69.80
47967;BME280;33733;52.456;13.620;2023-11-18T05:30:41;102067.69;;;6.99;70.40
47967;BME280;33733;52.456;13.620;2023-11-18T05:33:10;102060.78;;;6.97;69.58
47967;BME280;33733;52.456;13.620;2023-11-18T05:35:44;102064.66;;;6.59;70.40
47967;BME280;33733;52.456;13.620;2023-11-18T05:38:16;102065.41;;;6.63;70.90
47967;BME280;33733;52.456;13.620;2023-11-18T05:40:49;102067.78;;;6.70;70.58
47967;BME280;33733;52.456;13.620;2023-11-18T05:43:28;102062.41;;;6.47;71.31
47967;BME280;33733;52.456;13.620;2023-11-18T05:45:57;102063.94;;;6.54;70.28
47967;BME280;33733;52.456;13.620;2023-11-18T05:48:47;102068.09;;;6.87;70.55
47967;BME280;33733;52.456;13.620;2023-11-18T05:51:19;102063.63;;;6.91;69.23
47967;BME280;33733;52.456;13.620;2023-11-18T05:53:46;102070.94;;;6.53;70.01
47967;BME280;33733;52.456;13.620;2023-11-18T05:56:15;102071.22;;;6.72;69.80
47967;BME280;33733;52.456;13.620;2023-11-18T05:58:45;102074.09;;;6.91;69.61
47967;BME280;33733;52.456;13.620;2023-11-18T06:01:14;102064.00;;;7.05;68.17
47967;BME280;33733;52.456;13.620;2023-11-18T06:03:42;102066.59;;;7.06;67.67
47967;BME280;33733;52.456;13.620;2023-11-18T06:06:14;102076.03;;;7.12;67.62
47967;BME280;33733;52.456;13.620;2023-11-18T06:08:48;102074.13;;;6.63;69.14
47967;BME280;33733;52.456;13.620;2023-11-18T06:11:16;102072.00;;;6.48;70.04
47967;BME280;33733;52.456;13.620;2023-11-18T06:13:45;102069.53;;;6.43;70.49
47967;BME280;33733;52.456;13.620;2023-11-18T06:16:17;102081.84;;;6.68;69.44
47967;BME280;33733;52.456;13.620;2023-11-18T06:18:50;102086.59;;;6.83;69.94
47967;BME280;33733;52.456;13.620;2023-11-18T06:21:19;102082.97;;;6.87;69.11
47967;BME280;33733;52.456;13.620;2023-11-18T06:23:47;102086.47;;;6.87;69.20
47967;BME280;33733;52.456;13.620;2023-11-18T06:26:15;102091.06;;;7.07;68.99
47967;BME280;33733;52.456;13.620;2023-11-18T06:28:44;102091.25;;;7.01;68.57
47967;BME280;33733;52.456;13.620;2023-11-18T06:31:12;102095.22;;;6.86;69.17
47967;BME280;33733;52.456;13.620;2023-11-18T06:33:42;102098.38;;;6.70;70.42
47967;BME280;33733;52.456;13.620;2023-11-18T06:38:41;102096.69;;;6.69;70.90
47967;BME280;33733;52.456;13.620;2023-11-18T06:41:09;102109.44;;;6.79;70.32
47967;BME280;33733;52.456;13.620;2023-11-18T06:43:40;102108.44;;;6.83;69.23
47967;BME280;33733;52.456;13.620;2023-11-18T06:46:25;102108.44;;;7.09;69.30
47967;BME280;33733;52.456;13.620;2023-11-18T06:48:54;102111.41;;;7.25;68.90
47967;BME280;33733;52.456;13.620;2023-11-18T06:51:21;102117.66;;;7.21;68.75
47967;BME280;33733;52.456;13.620;2023-11-18T06:53:52;102117.47;;;7.27;68.72
47967;BME280;33733;52.456;13.620;2023-11-18T06:56:23;102117.59;;;7.24;69.01
47967;BME280;33733;52.456;13.620;2023-11-18T06:58:50;102130.78;;;7.21;68.68
47967;BME280;33733;52.456;13.620;2023-11-18T07:01:18;102130.28;;;7.36;67.96
47967;BME280;33733;52.456;13.620;2023-11-18T07:03:46;102131.31;;;7.32;68.07
47967;BME280;33733;52.456;13.620;2023-11-18T07:06:20;102140.50;;;7.19;68.68
47967;BME280;33733;52.456;13.620;2023-11-18T07:08:49;102130.50;;;7.30;68.62
47967;BME280;33733;52.456;13.620;2023-11-18T07:11:17;102131.53;;;6.98;69.23
47967;BME280;33733;52.456;13.620;2023-11-18T07:13:45;102136.09;;;7.20;68.64
47967;BME280;33733;52.456;13.620;2023-11-18T07:16:13;102138.09;;;7.38;68.39
47967;BME280;33733;52.456;13.620;2023-11-18T07:18:41;102140.31;;;6.97;69.42
47967;BME280;33733;52.456;13.620;2023-11-18T07:21:09;102142.59;;;7.08;69.38
47967;BME280;33733;52.456;13.620;2023-11-18T07:23:37;102142.41;;;7.14;68.64
47967;BME280;33733;52.456;13.620;2023-11-18T07:26:04;102149.69;;;7.32;68.77
47967;BME280;33733;52.456;13.620;2023-11-18T07:28:31;102153.84;;;7.38;68.25
47967;BME280;33733;52.456;13.620;2023-11-18T07:30:59;102152.38;;;7.29;67.95
47967;BME280;33733;52.456;13.620;2023-11-18T07:33:26;102150.16;;;7.43;68.20
47967;BME280;33733;52.456;13.620;2023-11-18T07:35:54;102151.78;;;7.47;68.27
47967;BME280;33733;52.456;13.620;2023-11-18T07:38:23;102154.53;;;7.17;68.04
47967;BME280;33733;52.456;13.620;2023-11-18T07:40:51;102157.84;;;7.23;68.34
47967;BME280;33733;52.456;13.620;2023-11-18T07:43:23;102156.16;;;7.47;68.87
47967;BME280;33733;52.456;13.620;2023-11-18T07:45:50;102162.81;;;7.57;68.48
47967;BME280;33733;52.456;13.620;2023-11-18T07:48:21;102168.75;;;7.62;68.05
47967;BME280;33733;52.456;13.620;2023-11-18T07:50:48;102163.66;;;7.57;68.05
47967;BME280;33733;52.456;13.620;2023-11-18T07:53:15;102164.22;;;7.67;67.59
47967;BME280;33733;52.456;13.620;2023-11-18T07:55:43;102167.25;;;7.29;68.85
47967;BME280;33733;52.456;13.620;2023-11-18T07:58:11;102174.31;;;7.53;68.62
47967;BME280;33733;52.456;13.620;2023-11-18T08:00:40;102177.63;;;7.33;68.69
47967;BME280;33733;52.456;13.620;2023-11-18T08:03:08;102180.84;;;7.41;68.83
47967;BME280;33733;52.456;13.620;2023-11-18T08:05:40;102181.28;;;7.54;68.42
47967;BME280;33733;52.456;13.620;2023-11-18T08:08:07;102188.63;;;7.69;67.49
47967;BME280;33733;52.456;13.620;2023-11-18T08:10:35;102185.28;;;7.66;67.20
47967;BME280;33733;52.456;13.620;2023-11-18T08:13:08;102185.34;;;7.64;67.83
47967;BME280;33733;52.456;13.620;2023-11-18T08:15:43;102184.25;;;7.70;67.92
47967;BME280;33733;52.456;13.620;2023-11-18T08:18:13;102195.50;;;7.73;67.12
47967;BME280;33733;52.456;13.620;2023-11-18T08:20:41;102192.94;;;7.45;67.74
47967;BME280;33733;52.456;13.620;2023-11-18T08:23:10;102203.00;;;7.59;67.67
47967;BME280;33733;52.456;13.620;2023-11-18T08:25:37;102204.88;;;7.55;66.85
47967;BME280;33733;52.456;13.620;2023-11-18T08:28:07;102200.16;;;7.40;66.95
47967;BME280;33733;52.456;13.620;2023-11-18T08:30:37;102198.25;;;7.18;67.77
47967;BME280;33733;52.456;13.620;2023-11-18T08:33:04;102209.25;;;7.01;68.71
47967;BME280;33733;52.456;13.620;2023-11-18T08:35:32;102205.47;;;7.11;68.60
47967;BME280;33733;52.456;13.620;2023-11-18T08:38:00;102207.81;;;7.20;68.31
47967;BME280;33733;52.456;13.620;2023-11-18T08:40:28;102209.31;;;7.27;68.11
47967;BME280;33733;52.456;13.620;2023-11-18T08:42:56;102209.75;;;7.14;68.09
47967;BME280;33733;52.456;13.620;2023-11-18T08:45:25;102210.09;;;7.29;68.17
47967;BME280;33733;52.456;13.620;2023-11-18T08:48:01;102205.88;;;7.25;68.41
47967;BME280;33733;52.456;13.620;2023-11-18T08:50:31;102199.66;;;7.54;68.24
47967;BME280;33733;52.456;13.620;2023-11-18T08:52:58;102196.06;;;7.56;67.96
47967;BME280;33733;52.456;13.620;2023-11-18T08:55:28;102198.50;;;7.10;69.29
47967;BME280;33733;52.456;13.620;2023-11-18T08:58:18;102191.00;;;7.52;68.87
47967;BME280;33733;52.456;13.620;2023-11-18T09:00:49;102196.94;;;7.57;66.45
47967;BME280;33733;52.456;13.620;2023-11-18T09:03:24;102195.50;;;7.73;66.06
47967;BME280;33733;52.456;13.620;2023-11-18T09:05:53;102201.50;;;6.98;67.04
47967;BME280;33733;52.456;13.620;2023-11-18T09:08:24;102203.44;;;7.45;66.85
47967;BME280;33733;52.456;13.620;2023-11-18T09:10:56;102206.19;;;7.16;67.73
47967;BME280;33733;52.456;13.620;2023-11-18T09:13:24;102213.81;;;7.76;66.05
47967;BME280;33733;52.456;13.620;2023-11-18T09:16:00;102219.63;;;7.84;64.88
47967;BME280;33733;52.456;13.620;2023-11-18T09:18:28;102221.06;;;6.88;66.40
47967;BME280;33733;52.456;13.620;2023-11-18T09:20:57;102222.69;;;7.20;67.51
47967;BME280;33733;52.456;13.620;2023-11-18T09:23:33;102231.47;;;7.17;66.37
47967;BME280;33733;52.456;13.620;2023-11-18T09:26:04;102236.66;;;6.92;67.65
47967;BME280;33733;52.456;13.620;2023-11-18T09:28:35;102235.44;;;7.56;66.74
47967;BME280;33733;52.456;13.620;2023-11-18T09:31:03;102234.03;;;7.46;65.80
47967;BME280;33733;52.456;13.620;2023-11-18T09:33:31;102241.41;;;7.62;66.09
47967;BME280;33733;52.456;13.620;2023-11-18T09:36:04;102234.31;;;7.39;65.49
47967;BME280;33733;52.456;13.620;2023-11-18T09:38:35;102243.16;;;7.08;66.60
47967;BME280;33733;52.456;13.620;2023-11-18T09:41:04;102235.28;;;7.36;67.00
47967;BME280;33733;52.456;13.620;2023-11-18T09:43:34;102231.81;;;7.61;65.71
47967;BME280;33733;52.456;13.620;2023-11-18T09:46:26;102232.09;;;7.25;66.06
47967;BME280;33733;52.456;13.620;2023-11-18T09:49:22;102229.81;;;7.42;65.69
47967;BME280;33733;52.456;13.620;2023-11-18T09:52:03;102226.41;;;7.91;65.05
47967;BME280;33733;52.456;13.620;2023-11-18T10:00:04;102227.03;;;8.23;62.52
47967;BME280;33733;52.456;13.620;2023-11-18T10:03:06;102235.03;;;8.20;63.18
47967;BME280;33733;52.456;13.620;2023-11-18T10:05:36;102242.66;;;8.02;62.52
47967;BME280;33733;52.456;13.620;2023-11-18T10:08:03;102240.88;;;8.28;62.00
47967;BME280;33733;52.456;13.620;2023-11-18T10:10:33;102243.81;;;7.94;62.36
47967;BME280;33733;52.456;13.620;2023-11-18T10:13:04;102246.19;;;8.26;62.33
47967;BME280;33733;52.456;13.620;2023-11-18T10:15:35;102240.41;;;8.41;62.14
47967;BME280;33733;52.456;13.620;2023-11-18T10:18:02;102235.97;;;8.17;61.83
47967;BME280;33733;52.456;13.620;2023-11-18T10:20:46;102238.63;;;8.42;62.45
47967;BME280;33733;52.456;13.620;2023-11-18T10:23:15;102241.09;;;8.46;61.91
47967;BME280;33733;52.456;13.620;2023-11-18T10:31:04;102222.16;;;8.83;61.36
47967;BME280;33733;52.456;13.620;2023-11-18T10:33:36;102223.97;;;8.60;62.13
47967;BME280;33733;52.456;13.620;2023-11-18T10:36:05;102220.91;;;8.70;60.94
47967;BME280;33733;52.456;13.620;2023-11-18T10:38:40;102222.69;;;8.46;61.94
47967;BME280;33733;52.456;13.620;2023-11-18T10:41:18;102216.41;;;8.01;62.78
47967;BME280;33733;52.456;13.620;2023-11-18T10:43:46;102216.81;;;8.15;63.12
47967;BME280;33733;52.456;13.620;2023-11-18T10:46:16;102210.22;;;8.75;62.33
47967;BME280;33733;52.456;13.620;2023-11-18T10:48:45;102209.84;;;8.39;62.82
47967;BME280;33733;52.456;13.620;2023-11-18T10:51:18;102216.34;;;8.75;61.82
47967;BME280;33733;52.456;13.620;2023-11-18T10:53:53;102219.16;;;8.71;61.47
47967;BME280;33733;52.456;13.620;2023-11-18T10:56:27;102218.75;;;9.03;60.64
47967;BME280;33733;52.456;13.620;2023-11-18T10:59:05;102218.84;;;9.00;60.96
47967;BME280;33733;52.456;13.620;2023-11-18T11:01:37;102224.94;;;9.02;60.68
47967;BME280;33733;52.456;13.620;2023-11-18T11:04:17;102223.97;;;9.26;60.46
47967;BME280;33733;52.456;13.620;2023-11-18T11:06:48;102222.13;;;9.50;60.01
47967;BME280;33733;52.456;13.620;2023-11-18T11:09:23;102218.88;;;9.64;58.84
47967;BME280;33733;52.456;13.620;2023-11-18T11:11:57;102220.28;;;8.40;61.19
47967;BME280;33733;52.456;13.620;2023-11-18T11:14:33;102227.63;;;9.22;59.80
47967;BME280;33733;52.456;13.620;2023-11-18T11:17:12;102232.44;;;8.89;60.05
47967;BME280;33733;52.456;13.620;2023-11-18T11:19:50;102227.25;;;8.65;60.37
47967;BME280;33733;52.456;13.620;2023-11-18T11:22:35;102234.44;;;8.12;62.19
47967;BME280;33733;52.456;13.620;2023-11-18T11:27:52;102239.38;;;8.45;62.23
47967;BME280;33733;52.456;13.620;2023-11-18T11:30:34;102233.50;;;8.39;62.12
47967;BME280;33733;52.456;13.620;2023-11-18T11:33:27;102218.28;;;8.22;62.04
47967;BME280;33733;52.456;13.620;2023-11-18T11:35:56;102212.53;;;7.88;64.23
47967;BME280;33733;52.456;13.620;2023-11-18T11:38:26;102213.53;;;7.84;62.31
47967;BME280;33733;52.456;13.620;2023-11-18T11:40:55;102212.84;;;7.79;63.77
47967;BME280;33733;52.456;13.620;2023-11-18T11:43:27;102207.75;;;7.99;63.47
47967;BME280;33733;52.456;13.620;2023-11-18T11:45:55;102209.03;;;7.87;62.93
47967;BME280;33733;52.456;13.620;2023-11-18T11:48:24;102218.09;;;8.03;63.78
47967;BME280;33733;52.456;13.620;2023-11-18T11:51:16;102218.34;;;7.45;64.42
47967;BME280;33733;52.456;13.620;2023-11-18T11:53:55;102218.69;;;8.12;63.76
47967;BME280;33733;52.456;13.620;2023-11-18T11:56:39;102198.00;;;8.26;62.80
47967;BME280;33733;52.456;13.620;2023-11-18T11:59:07;102212.09;;;8.00;63.40
47967;BME280;33733;52.456;13.620;2023-11-18T12:01:39;102193.16;;;7.39;65.19
47967;BME280;33733;52.456;13.620;2023-11-18T12:04:17;102191.06;;;6.96;67.50
47967;BME280;33733;52.456;13.620;2023-11-18T12:06:55;102185.03;;;6.93;67.27
47967;BME280;33733;52.456;13.620;2023-11-18T12:09:41;102184.97;;;6.68;68.00
47967;BME280;33733;52.456;13.620;2023-11-18T12:12:18;102178.09;;;6.92;67.22
47967;BME280;33733;52.456;13.620;2023-11-18T12:14:54;102177.13;;;7.22;66.65
47967;BME280;33733;52.456;13.620;2023-11-18T12:17:27;102167.69;;;7.43;66.14
47967;BME280;33733;52.456;13.620;2023-11-18T12:20:00;102170.50;;;7.37;66.34
47967;BME280;33733;52.456;13.620;2023-11-18T12:23:02;102171.91;;;7.21;66.28
47967;BME280;33733;52.456;13.620;2023-11-18T12:25:32;102172.66;;;6.98;66.54
47967;BME280;33733;52.456;13.620;2023-11-18T12:28:07;102155.91;;;7.54;65.79
47967;BME280;33733;52.456;13.620;2023-11-18T12:33:05;102158.91;;;7.44;65.11
47967;BME280;33733;52.456;13.620;2023-11-18T12:35:51;102158.25;;;7.62;64.92
47967;BME280;33733;52.456;13.620;2023-11-18T12:38:48;102164.03;;;7.47;65.16
47967;BME280;33733;52.456;13.620;2023-11-18T12:41:37;102153.63;;;6.91;66.27
47967;BME280;33733;52.456;13.620;2023-11-18T12:44:29;102147.09;;;8.05;65.38
47967;BME280;33733;52.456;13.620;2023-11-18T12:47:03;102146.47;;;8.22;63.62
47967;BME280;33733;52.456;13.620;2023-11-18T12:49:41;102138.88;;;8.61;63.13
47967;BME280;33733;52.456;13.620;2023-11-18T12:52:12;102148.31;;;7.72;63.62
47967;BME280;33733;52.456;13.620;2023-11-18T12:54:45;102141.66;;;7.86;63.79
47967;BME280;33733;52.456;13.620;2023-11-18T12:57:20;102146.50;;;7.23;66.16
47967;BME280;33733;52.456;13.620;2023-11-18T12:59:49;102145.03;;;7.40;64.98
47967;BME280;33733;52.456;13.620;2023-11-18T13:02:17;102142.81;;;7.28;64.72
47967;BME280;33733;52.456;13.620;2023-11-18T13:04:48;102143.78;;;6.98;65.83
47967;BME280;33733;52.456;13.620;2023-11-18T13:07:18;102141.63;;;7.37;65.22
47967;BME280;33733;52.456;13.620;2023-11-18T13:09:47;102147.13;;;7.29;64.48
47967;BME280;33733;52.456;13.620;2023-11-18T13:12:15;102140.34;;;7.73;63.89
47967;BME280;33733;52.456;13.620;2023-11-18T13:14:42;102138.91;;;7.89;63.98
47967;BME280;33733;52.456;13.620;2023-11-18T13:17:15;102133.00;;;8.08;63.81
47967;BME280;33733;52.456;13.620;2023-11-18T13:19:44;102131.63;;;8.44;63.32
47967;BME280;33733;52.456;13.620;2023-11-18T13:22:12;102143.75;;;8.71;62.44
47967;BME280;33733;52.456;13.620;2023-11-18T13:24:42;102142.56;;;7.36;65.42
47967;BME280;33733;52.456;13.620;2023-11-18T13:27:15;102136.13;;;6.92;67.39
47967;BME280;33733;52.456;13.620;2023-11-18T13:29:45;102126.59;;;6.89;67.17